Time;durP1;ratioP1;P1;durP2;ratioP2;P2;SDS_P1;SDS_P2;PMS_P1;PMS_P2;Temp;Humidity;BMP_temperature;BMP_pressure;BME280_temperature;BME280_humidity;BME280_pressure;Samples;Min_cycle;Max_cycle;Signal;HPM_P1;HPM_P2
2021/10/12 00:01:48;;;;;;;4.43;2.53;;;11.70;99.90;;;;;;5117081;28;20480;-58
2021/10/12 00:04:15;;;;;;;3.80;2.20;;;11.70;99.90;;;;;;5116843;28;20447;-61
2021/10/12 00:06:42;;;;;;;6.10;3.20;;;11.70;99.90;;;;;;5115926;28;20477;-58
2021/10/12 00:09:10;;;;;;;4.67;2.03;;;11.80;99.90;;;;;;5115461;28;20444;-57
2021/10/12 00:11:41;;;;;;;5.57;2.70;;;11.70;99.90;;;;;;5115461;28;20749;-58
2021/10/12 00:14:11;;;;;;;5.67;2.90;;;11.80;99.90;;;;;;5115995;28;20451;-58
2021/10/12 00:16:43;;;;;;;5.03;2.20;;;11.70;99.90;;;;;;5117111;28;20738;-58
2021/10/12 00:19:11;;;;;;;6.70;2.43;;;11.80;99.90;;;;;;5117958;28;20453;-58
2021/10/12 00:21:40;;;;;;;7.50;2.00;;;11.80;99.90;;;;;;5116495;28;21154;-59
2021/10/12 00:24:17;;;;;;;10.10;3.53;;;11.70;99.90;;;;;;5114369;28;20441;-58
2021/10/12 00:26:44;;;;;;;5.17;2.87;;;11.80;99.90;;;;;;5117198;28;20550;-58
2021/10/12 00:29:14;;;;;;;4.50;1.83;;;11.70;99.90;;;;;;5118131;28;20445;-59
2021/10/12 00:31:42;;;;;;;4.90;2.70;;;11.70;99.90;;;;;;5118254;28;20478;-58
2021/10/12 00:34:09;;;;;;;3.00;2.13;;;11.60;99.90;;;;;;5118626;28;20558;-58
2021/10/12 00:36:39;;;;;;;4.37;2.50;;;11.40;99.90;;;;;;5118147;28;20468;-58
2021/10/12 00:39:10;;;;;;;5.57;2.90;;;11.40;99.90;;;;;;5117400;28;20448;-58
2021/10/12 00:41:39;;;;;;;6.40;2.23;;;11.30;99.90;;;;;;5117219;28;20927;-58
2021/10/12 00:44:07;;;;;;;6.27;2.80;;;11.30;99.90;;;;;;5117039;28;20532;-58
2021/10/12 00:46:43;;;;;;;5.20;3.20;;;11.10;99.90;;;;;;5116943;28;20835;-58
2021/10/12 00:49:10;;;;;;;5.27;3.27;;;11.00;99.90;;;;;;5116920;28;20474;-58
2021/10/12 00:51:39;;;;;;;5.50;2.10;;;10.90;99.90;;;;;;5117732;28;20490;-58
2021/10/12 00:54:07;;;;;;;4.20;1.90;;;10.80;99.90;;;;;;5117221;28;20831;-58
2021/10/12 00:56:36;;;;;;;4.13;2.17;;;10.70;99.90;;;;;;5117325;28;20448;-58
2021/10/12 00:59:03;;;;;;;5.67;1.97;;;10.70;99.90;;;;;;5117607;28;20479;-57
2021/10/12 01:01:33;;;;;;;5.13;2.03;;;10.80;99.90;;;;;;5116986;28;20484;-57
2021/10/12 01:04:03;;;;;;;3.60;2.03;;;10.90;99.90;;;;;;5117556;28;20441;-57
2021/10/12 01:06:30;;;;;;;2.70;1.70;;;11.00;99.90;;;;;;5117344;28;20480;-58
2021/10/12 01:08:57;;;;;;;3.93;2.50;;;11.10;99.90;;;;;;5117091;28;20467;-57
2021/10/12 01:11:25;;;;;;;6.07;2.13;;;11.10;99.90;;;;;;5117238;28;20918;-58
2021/10/12 01:13:52;;;;;;;5.57;2.27;;;11.20;99.90;;;;;;5116350;28;20836;-58
2021/10/12 01:16:19;;;;;;;3.80;2.23;;;11.10;99.90;;;;;;5117519;28;20479;-56
2021/10/12 01:18:56;;;;;;;5.00;2.57;;;11.10;99.90;;;;;;5116572;28;20445;-58
2021/10/12 01:21:25;;;;;;;4.50;2.53;;;11.00;99.90;;;;;;5116799;28;20768;-58
2021/10/12 01:23:55;;;;;;;4.30;1.80;;;10.90;99.90;;;;;;5117064;28;20902;-58
2021/10/12 01:26:23;;;;;;;4.00;1.60;;;10.90;99.90;;;;;;5115678;28;20456;-56
2021/10/12 01:28:50;;;;;;;6.07;2.60;;;10.80;99.90;;;;;;5116880;28;20449;-58
2021/10/12 01:31:20;;;;;;;3.90;1.70;;;10.90;99.90;;;;;;5117253;28;20462;-58
2021/10/12 01:33:47;;;;;;;3.80;1.67;;;10.90;99.90;;;;;;5117008;28;20445;-58
2021/10/12 01:36:15;;;;;;;5.20;2.20;;;10.90;99.90;;;;;;5117066;28;20449;-58
2021/10/12 01:38:44;;;;;;;5.77;2.80;;;10.90;99.90;;;;;;5116016;28;20763;-57
2021/10/12 01:41:11;;;;;;;4.77;1.87;;;10.90;99.90;;;;;;5116106;28;20545;-57
2021/10/12 01:43:38;;;;;;;3.40;1.73;;;10.90;99.90;;;;;;5116397;28;20477;-58
2021/10/12 01:46:06;;;;;;;4.73;2.10;;;10.90;99.90;;;;;;5116074;28;20563;-58
2021/10/12 01:48:34;;;;;;;6.87;1.70;;;11.00;99.90;;;;;;5115378;28;20448;-58
2021/10/12 01:51:02;;;;;;;3.90;1.90;;;11.10;99.90;;;;;;5115433;28;20558;-59
2021/10/12 01:53:29;;;;;;;7.43;2.80;;;11.10;99.90;;;;;;5116308;28;20749;-58
2021/10/12 01:55:58;;;;;;;5.03;1.90;;;11.10;99.90;;;;;;5113420;28;20946;-57
2021/10/12 01:58:25;;;;;;;3.60;1.70;;;11.00;99.90;;;;;;5113349;28;20897;-58
2021/10/12 02:00:52;;;;;;;8.13;2.37;;;11.00;99.90;;;;;;5113890;28;20743;-57
2021/10/12 02:03:20;;;;;;;5.60;2.37;;;10.90;99.90;;;;;;5113947;28;20482;-58
2021/10/12 02:05:47;;;;;;;5.37;2.57;;;10.90;99.90;;;;;;5114379;28;20452;-57
2021/10/12 02:08:14;;;;;;;4.10;1.80;;;10.90;99.90;;;;;;5115335;28;20443;-57
2021/10/12 02:10:41;;;;;;;4.30;2.30;;;10.80;99.90;;;;;;5115355;28;20458;-57
2021/10/12 02:13:10;;;;;;;5.17;1.90;;;10.80;99.90;;;;;;5115296;28;20441;-57
2021/10/12 02:15:37;;;;;;;4.57;2.00;;;10.80;99.90;;;;;;5115254;28;20552;-59
2021/10/12 02:18:04;;;;;;;4.40;1.90;;;10.90;99.90;;;;;;5113580;28;20527;-57
2021/10/12 02:20:32;;;;;;;7.97;1.90;;;10.90;99.90;;;;;;5114190;28;20460;-58
2021/10/12 02:22:59;;;;;;;5.17;1.90;;;10.90;99.90;;;;;;5114434;28;20778;-58
2021/10/12 02:25:26;;;;;;;6.10;2.67;;;10.90;99.90;;;;;;5117250;28;20547;-58
2021/10/12 02:27:53;;;;;;;5.83;2.30;;;11.00;99.90;;;;;;5120481;28;20535;-58
2021/10/12 02:30:22;;;;;;;8.40;3.07;;;11.00;99.90;;;;;;5120711;28;20867;-58
2021/10/12 02:32:49;;;;;;;6.10;2.20;;;10.90;99.90;;;;;;5119956;28;20440;-58
2021/10/12 02:35:16;;;;;;;3.43;1.60;;;10.90;99.90;;;;;;5119933;28;20502;-59
2021/10/12 02:37:43;;;;;;;4.77;2.33;;;10.90;99.90;;;;;;5119872;28;20539;-58
2021/10/12 02:40:12;;;;;;;4.17;1.60;;;10.90;99.90;;;;;;5120381;28;20490;-57
2021/10/12 02:42:39;;;;;;;3.30;2.17;;;11.00;99.90;;;;;;5120138;28;20480;-57
2021/10/12 02:45:10;;;;;;;5.90;3.10;;;11.00;99.90;;;;;;5120422;28;20483;-57
2021/10/12 02:47:38;;;;;;;7.10;2.80;;;10.90;99.90;;;;;;5119545;28;20451;-59
2021/10/12 02:50:08;;;;;;;6.73;2.63;;;11.00;99.90;;;;;;5118160;28;20452;-59
2021/10/12 02:52:35;;;;;;;5.00;2.53;;;10.90;99.90;;;;;;5118250;28;20939;-58
2021/10/12 02:55:03;;;;;;;4.30;2.50;;;10.70;99.90;;;;;;5117288;28;20550;-59
2021/10/12 02:57:32;;;;;;;5.90;2.03;;;10.70;99.90;;;;;;5118084;28;20769;-59
2021/10/12 02:59:59;;;;;;;3.13;1.83;;;10.70;99.90;;;;;;5117259;28;20715;-59
2021/10/12 03:02:26;;;;;;;6.07;2.87;;;10.70;99.90;;;;;;5117126;28;20480;-58
2021/10/12 03:04:55;;;;;;;4.73;2.27;;;10.70;99.90;;;;;;5117720;28;20449;-59
2021/10/12 03:07:22;;;;;;;3.83;2.10;;;10.90;99.90;;;;;;5118524;28;20567;-58
2021/10/12 03:09:49;;;;;;;4.50;2.70;;;11.00;99.90;;;;;;5118480;28;20540;-58
2021/10/12 03:12:16;;;;;;;4.90;2.37;;;11.10;99.90;;;;;;5119628;28;20436;-59
2021/10/12 03:14:44;;;;;;;5.10;2.80;;;11.20;99.90;;;;;;5119215;28;20453;-59
2021/10/12 03:17:11;;;;;;;3.83;2.40;;;11.20;99.90;;;;;;5120009;28;20451;-58
2021/10/12 03:19:38;;;;;;;4.70;2.30;;;11.10;99.90;;;;;;5119584;28;20450;-59
2021/10/12 03:22:10;;;;;;;4.73;2.20;;;11.00;99.90;;;;;;5118887;28;20480;-58
2021/10/12 03:24:38;;;;;;;6.45;3.42;;;10.90;99.90;;;;;;5116288;28;20798;-58
2021/10/12 03:27:05;;;;;;;8.93;4.18;;;10.80;99.90;;;;;;5118410;28;20794;-58
2021/10/12 03:29:32;;;;;;;6.25;3.38;;;10.70;99.90;;;;;;5117989;28;20442;-58
2021/10/12 03:32:00;;;;;;;4.65;3.80;;;10.60;99.90;;;;;;5116940;28;20436;-59
2021/10/12 03:34:27;;;;;;;7.30;4.65;;;10.40;99.90;;;;;;5117239;28;20420;-58
2021/10/12 03:36:55;;;;;;;7.78;4.32;;;10.20;99.90;;;;;;5116491;28;20412;-59
2021/10/12 03:39:25;;;;;;;7.50;4.00;;;10.00;99.90;;;;;;5116162;28;20419;-58
2021/10/12 03:41:53;;;;;;;6.22;3.60;;;10.00;99.90;;;;;;5115411;28;20459;-59
2021/10/12 03:44:22;;;;;;;6.95;3.92;;;10.00;99.90;;;;;;5116617;28;20739;-58
2021/10/12 03:46:49;;;;;;;4.55;2.95;;;10.00;99.90;;;;;;5117087;28;20876;-59
2021/10/12 03:49:17;;;;;;;4.97;2.60;;;10.10;99.90;;;;;;5116502;28;20498;-58
2021/10/12 03:51:44;;;;;;;5.13;2.90;;;10.30;99.90;;;;;;5115937;28;20435;-59
2021/10/12 03:54:12;;;;;;;5.83;3.03;;;10.50;99.90;;;;;;5114844;28;20414;-58
2021/10/12 03:56:41;;;;;;;4.40;2.70;;;10.80;99.90;;;;;;5114091;28;20812;-58
2021/10/12 03:59:10;;;;;;;5.40;2.70;;;11.00;99.90;;;;;;5112550;28;20467;-58
2021/10/12 04:01:37;;;;;;;3.28;1.98;;;11.20;99.90;;;;;;5112934;28;20419;-59
2021/10/12 04:04:04;;;;;;;3.08;1.85;;;11.40;99.90;;;;;;5114072;28;20451;-58
2021/10/12 04:06:32;;;;;;;4.18;1.77;;;11.50;99.90;;;;;;5112738;28;20425;-58
2021/10/12 04:08:59;;;;;;;6.03;2.30;;;11.60;99.90;;;;;;5114099;28;20404;-59
2021/10/12 04:11:26;;;;;;;3.10;1.60;;;11.40;99.90;;;;;;5114597;28;20720;-58
2021/10/12 04:13:55;;;;;;;4.80;1.50;;;11.30;99.90;;;;;;5115018;28;20416;-57
2021/10/12 04:16:22;;;;;;;3.65;1.80;;;11.30;99.90;;;;;;5114928;28;20420;-57
2021/10/12 04:18:49;;;;;;;3.10;1.40;;;11.40;99.90;;;;;;5114915;28;20458;-57
2021/10/12 04:21:16;;;;;;;2.60;1.50;;;11.40;99.90;;;;;;5115790;28;20427;-57
2021/10/12 04:23:43;;;;;;;3.70;1.40;;;11.50;99.90;;;;;;5114867;28;20704;-57
2021/10/12 04:26:13;;;;;;;3.20;1.67;;;11.50;99.90;;;;;;5113489;28;20693;-55
2021/10/12 04:28:40;;;;;;;3.23;1.30;;;11.60;99.90;;;;;;5114544;28;20466;-58
2021/10/12 04:31:09;;;;;;;4.40;1.30;;;11.60;99.90;;;;;;5114527;28;20424;-56
2021/10/12 04:33:36;;;;;;;3.90;1.30;;;11.50;99.90;;;;;;5114371;28;20820;-57
2021/10/12 04:36:04;;;;;;;3.35;1.42;;;11.50;99.90;;;;;;5113740;28;20430;-56
2021/10/12 04:38:32;;;;;;;2.78;1.60;;;11.40;99.90;;;;;;5114390;28;20500;-53
2021/10/12 04:40:59;;;;;;;3.60;1.30;;;11.30;99.90;;;;;;5113664;28;20435;-55
2021/10/12 04:43:26;;;;;;;3.05;1.63;;;11.20;99.90;;;;;;5112991;28;20428;-53
2021/10/12 04:45:53;;;;;;;3.97;1.80;;;11.20;99.90;;;;;;5113019;28;20831;-55
2021/10/12 04:48:22;;;;;;;4.50;1.70;;;11.20;99.90;;;;;;5113949;28;20422;-51
2021/10/12 04:50:49;;;;;;;4.20;1.80;;;11.20;99.90;;;;;;5115453;28;20807;-55
2021/10/12 04:53:16;;;;;;;4.88;2.85;;;11.20;99.90;;;;;;5116098;28;20422;-54
2021/10/12 04:55:43;;;;;;;5.55;2.20;;;11.10;99.90;;;;;;5116260;28;20816;-53
2021/10/12 04:58:11;;;;;;;4.22;1.70;;;11.10;99.90;;;;;;5116028;28;20474;-55
2021/10/12 05:00:38;;;;;;;3.22;1.90;;;11.00;99.90;;;;;;5115645;28;20430;-54
2021/10/12 05:03:06;;;;;;;4.20;1.90;;;10.90;99.90;;;;;;5116514;28;20845;-54
2021/10/12 05:05:35;;;;;;;3.30;1.83;;;11.00;99.90;;;;;;5115394;28;20519;-56
2021/10/12 05:08:02;;;;;;;4.43;1.60;;;11.10;99.90;;;;;;5115110;28;20506;-53
2021/10/12 05:10:30;;;;;;;4.30;1.90;;;11.30;99.90;;;;;;5113858;28;20424;-54
2021/10/12 05:12:57;;;;;;;5.80;1.90;;;11.40;99.90;;;;;;5114131;28;20869;-54
2021/10/12 05:15:26;;;;;;;2.90;1.77;;;11.30;99.90;;;;;;5113388;28;20845;-53
2021/10/12 05:17:53;;;;;;;2.80;1.30;;;11.30;99.90;;;;;;5112744;28;20442;-54
2021/10/12 05:20:21;;;;;;;3.97;1.90;;;11.40;99.90;;;;;;5113403;28;20807;-52
2021/10/12 05:22:50;;;;;;;5.25;1.92;;;11.20;99.90;;;;;;5112258;28;20435;-55
2021/10/12 05:25:17;;;;;;;3.70;1.90;;;11.10;99.90;;;;;;5111129;28;20431;-54
2021/10/12 05:27:45;;;;;;;4.50;1.60;;;10.90;99.90;;;;;;5111736;28;20439;-55
2021/10/12 05:30:13;;;;;;;3.83;2.00;;;10.70;99.90;;;;;;5110187;28;20428;-54
2021/10/12 05:32:41;;;;;;;2.58;1.80;;;10.70;99.90;;;;;;5089113;28;20418;-55
2021/10/12 05:35:10;;;;;;;4.40;1.98;;;10.60;99.90;;;;;;5091232;28;20430;-55
2021/10/12 05:37:38;;;;;;;3.90;2.10;;;10.70;99.90;;;;;;5111173;28;20507;-54
2021/10/12 05:40:09;;;;;;;2.30;1.65;;;10.80;99.90;;;;;;5110152;28;20586;-55
2021/10/12 05:42:36;;;;;;;3.37;1.70;;;10.80;99.90;;;;;;5111683;28;20444;-54
2021/10/12 05:45:03;;;;;;;3.25;1.60;;;10.80;99.90;;;;;;5110029;28;20539;-51
2021/10/12 05:47:31;;;;;;;3.28;1.90;;;10.90;99.90;;;;;;5109171;28;20503;-54
2021/10/12 05:49:58;;;;;;;3.97;1.67;;;10.90;99.90;;;;;;5110356;28;20715;-54
2021/10/12 05:52:25;;;;;;;3.78;2.00;;;11.10;99.90;;;;;;5109134;28;20558;-55
2021/10/12 05:55:04;;;;;;;5.00;2.60;;;11.10;99.90;;;;;;5111672;28;20431;-55
2021/10/12 05:57:38;;;;;;;4.00;2.20;;;11.20;99.90;;;;;;5108723;28;20514;-55
2021/10/12 06:00:07;;;;;;;5.32;1.98;;;11.20;99.90;;;;;;5110496;28;20514;-52
2021/10/12 06:02:34;;;;;;;3.47;2.17;;;11.20;99.90;;;;;;5110274;28;20511;-51
2021/10/12 06:05:01;;;;;;;4.60;2.30;;;11.10;99.90;;;;;;5111020;28;20438;-54
2021/10/12 06:07:28;;;;;;;4.35;2.60;;;10.90;99.90;;;;;;5110972;28;20424;-52
2021/10/12 06:09:56;;;;;;;4.70;1.80;;;10.90;99.90;;;;;;5106163;28;20420;-54
2021/10/12 06:12:23;;;;;;;3.47;1.90;;;10.90;99.90;;;;;;5107578;28;20416;-51
2021/10/12 06:14:51;;;;;;;4.85;2.60;;;11.00;99.90;;;;;;5106537;28;20469;-51
2021/10/12 06:17:19;;;;;;;5.30;2.38;;;11.10;99.90;;;;;;5107159;28;20412;-51
2021/10/12 06:19:46;;;;;;;3.85;2.70;;;11.10;99.90;;;;;;5107948;28;20518;-53
2021/10/12 06:22:13;;;;;;;7.22;2.20;;;11.00;99.90;;;;;;5109879;28;20420;-52
2021/10/12 06:24:40;;;;;;;5.65;2.28;;;10.80;99.90;;;;;;5109282;28;20440;-53
2021/10/12 06:27:07;;;;;;;3.60;2.13;;;10.80;99.90;;;;;;5108271;28;20424;-53
2021/10/12 06:29:35;;;;;;;4.80;2.60;;;10.70;99.90;;;;;;5109718;28;20507;-55
2021/10/12 06:32:04;;;;;;;4.13;2.50;;;10.40;99.90;;;;;;5112167;28;20703;-55
2021/10/12 06:34:31;;;;;;;5.13;2.63;;;10.40;99.90;;;;;;5110980;28;20880;-53
2021/10/12 06:36:59;;;;;;;3.10;1.90;;;10.30;99.90;;;;;;5110663;28;20480;-56
2021/10/12 06:39:26;;;;;;;4.70;2.08;;;10.40;99.90;;;;;;5109877;28;20446;-54
2021/10/12 06:41:53;;;;;;;4.55;2.10;;;10.60;99.90;;;;;;5111026;28;20418;-56
2021/10/12 06:44:20;;;;;;;5.87;2.23;;;10.90;99.90;;;;;;5122705;28;20226;-54
2021/10/12 06:46:47;;;;;;;4.10;1.40;;;11.00;99.90;;;;;;5110772;28;20448;-57
2021/10/12 06:49:16;;;;;;;5.80;1.40;;;11.00;99.90;;;;;;5111197;28;20436;-58
2021/10/12 06:51:43;;;;;;;3.83;1.40;;;11.30;99.90;;;;;;5109473;28;20456;-57
2021/10/12 06:54:11;;;;;;;2.47;1.13;;;11.20;99.90;;;;;;5108767;28;20732;-57
2021/10/12 06:56:38;;;;;;;4.03;1.30;;;11.00;99.90;;;;;;5110825;28;20898;-56
2021/10/12 06:59:05;;;;;;;2.97;1.50;;;10.90;99.90;;;;;;5109881;28;20543;-55
2021/10/12 07:01:33;;;;;;;1.83;1.20;;;10.80;99.90;;;;;;5110375;28;20488;-57
2021/10/12 07:04:00;;;;;;;2.80;1.70;;;10.90;99.90;;;;;;5109861;28;20648;-58
2021/10/12 07:06:28;;;;;;;4.37;1.20;;;11.00;99.90;;;;;;5109979;28;20472;-58
2021/10/12 07:08:55;;;;;;;6.03;1.40;;;11.10;99.90;;;;;;5110484;28;20892;-58
2021/10/12 07:11:23;;;;;;;3.10;1.90;;;11.10;99.90;;;;;;5111746;28;20483;-58
2021/10/12 07:13:50;;;;;;;5.67;2.20;;;11.10;99.90;;;;;;5113669;28;20205;-58
2021/10/12 07:16:20;;;;;;;5.23;2.00;;;11.00;99.90;;;;;;5114108;28;20814;-58
2021/10/12 07:18:48;;;;;;;3.33;1.20;;;10.90;99.90;;;;;;5114286;28;20480;-58
2021/10/12 07:21:15;;;;;;;4.53;1.50;;;10.80;99.90;;;;;;5112988;28;20452;-58
2021/10/12 07:23:44;;;;;;;2.33;1.70;;;11.00;99.90;;;;;;5114959;28;20693;-58
2021/10/12 07:26:11;;;;;;;3.50;1.30;;;11.00;99.90;;;;;;5113151;28;20472;-57
2021/10/12 07:28:39;;;;;;;3.87;1.70;;;11.00;99.90;;;;;;5114430;28;20857;-56
2021/10/12 07:31:06;;;;;;;6.37;1.50;;;11.10;99.90;;;;;;5113707;28;20457;-56
2021/10/12 07:33:34;;;;;;;2.37;1.23;;;11.20;99.90;;;;;;5112611;28;20690;-56
2021/10/12 07:36:02;;;;;;;2.50;1.10;;;11.10;99.90;;;;;;5111945;28;20498;-57
2021/10/12 07:38:29;;;;;;;2.77;1.10;;;11.10;99.90;;;;;;5111322;28;20433;-56
2021/10/12 07:41:00;;;;;;;2.60;0.90;;;11.10;99.90;;;;;;5107937;28;20488;-56
2021/10/12 07:43:28;;;;;;;1.27;0.87;;;11.40;99.90;;;;;;5119870;27;20445;-57
2021/10/12 07:45:55;;;;;;;1.50;1.00;;;11.50;99.90;;;;;;5113272;28;20449;-56
2021/10/12 07:48:23;;;;;;;6.40;1.47;;;11.50;99.90;;;;;;5112900;28;20449;-57
2021/10/12 07:50:51;;;;;;;2.70;1.00;;;11.40;99.90;;;;;;5112691;28;20445;-56
2021/10/12 07:53:19;;;;;;;2.83;1.10;;;11.40;99.90;;;;;;5112563;28;20444;-55
2021/10/12 07:55:51;;;;;;;1.80;1.10;;;11.30;99.90;;;;;;5113354;28;20460;-55
2021/10/12 07:58:19;;;;;;;3.70;1.50;;;11.20;99.90;;;;;;5114026;28;20616;-56
2021/10/12 08:00:47;;;;;;;5.30;1.10;;;11.10;99.90;;;;;;5115464;28;20460;-57
2021/10/12 08:03:16;;;;;;;1.30;0.80;;;11.10;99.90;;;;;;5116432;28;20476;-55
2021/10/12 08:05:44;;;;;;;1.60;0.90;;;11.00;99.90;;;;;;5115683;28;20442;-56
2021/10/12 08:08:12;;;;;;;1.90;0.80;;;11.00;99.90;;;;;;5115567;28;20556;-56
2021/10/12 08:10:39;;;;;;;2.10;0.80;;;11.30;99.90;;;;;;5114529;28;20444;-56
2021/10/12 08:13:09;;;;;;;3.50;1.17;;;11.50;99.90;;;;;;5114284;28;20535;-57
2021/10/12 08:15:41;;;;;;;3.13;1.03;;;11.60;99.90;;;;;;5114085;28;20811;-56
2021/10/12 08:18:12;;;;;;;1.77;0.97;;;11.70;99.90;;;;;;5114116;28;20453;-56
2021/10/12 08:20:45;;;;;;;1.90;0.87;;;11.80;99.90;;;;;;5113626;28;20767;-54
2021/10/12 08:23:12;;;;;;;1.63;0.90;;;11.70;99.90;;;;;;5112459;28;20551;-57
2021/10/12 08:25:41;;;;;;;2.17;0.80;;;11.60;99.90;;;;;;5112987;28;20817;-56
2021/10/12 08:28:08;;;;;;;2.03;0.90;;;11.70;99.90;;;;;;5114297;28;20452;-57
2021/10/12 08:30:35;;;;;;;2.00;0.90;;;11.80;99.90;;;;;;5114696;28;20437;-57
2021/10/12 08:33:04;;;;;;;1.27;0.80;;;11.50;99.90;;;;;;5113882;28;20519;-56
2021/10/12 08:35:32;;;;;;;1.73;0.90;;;11.60;99.90;;;;;;5113391;28;20520;-55
2021/10/12 08:37:59;;;;;;;1.83;0.80;;;11.60;99.90;;;;;;5113856;28;20459;-57
2021/10/12 08:40:27;;;;;;;2.40;1.00;;;11.70;99.90;;;;;;5113812;28;20801;-57
2021/10/12 08:42:54;;;;;;;1.50;0.80;;;11.80;99.90;;;;;;5113770;28;20456;-57
2021/10/12 08:45:25;;;;;;;1.30;0.80;;;11.70;99.90;;;;;;5113476;28;20516;-57
2021/10/12 08:47:52;;;;;;;1.47;0.90;;;11.80;99.90;;;;;;5113940;28;20452;-58
2021/10/12 08:50:24;;;;;;;1.23;0.80;;;12.10;99.90;;;;;;5113183;28;20931;-58
2021/10/12 08:52:52;;;;;;;1.60;0.90;;;12.10;99.90;;;;;;5119176;27;20726;-58
2021/10/12 08:55:19;;;;;;;2.13;0.90;;;12.40;99.90;;;;;;5105435;27;20437;-57
2021/10/12 08:57:48;;;;;;;1.43;0.70;;;12.50;99.90;;;;;;5114129;28;20456;-56
2021/10/12 09:00:18;;;;;;;1.20;0.70;;;12.60;99.90;;;;;;5113320;28;20445;-57
2021/10/12 09:02:57;;;;;;;2.60;0.80;;;12.50;99.90;;;;;;5108909;28;20517;-57
2021/10/12 09:05:27;;;;;;;1.20;0.70;;;12.40;99.90;;;;;;5113237;28;20476;-56
2021/10/12 09:07:59;;;;;;;1.47;0.90;;;12.60;99.90;;;;;;5112927;28;20499;-58
2021/10/12 09:10:31;;;;;;;1.47;0.60;;;12.60;99.90;;;;;;5109550;28;20448;-58
2021/10/12 09:13:07;;;;;;;1.33;0.60;;;12.80;99.90;;;;;;5110788;28;20456;-55
2021/10/12 09:15:34;;;;;;;1.50;0.67;;;12.80;99.90;;;;;;5109510;28;20535;-53
2021/10/12 09:18:02;;;;;;;1.00;0.60;;;12.70;99.90;;;;;;5111233;28;20449;-48
2021/10/12 09:20:32;;;;;;;1.47;0.73;;;12.70;99.90;;;;;;5111835;28;20462;-52
2021/10/12 09:23:13;;;;;;;2.43;1.30;;;12.60;99.90;;;;;;5112222;28;20464;-52
2021/10/12 09:25:43;;;;;;;1.93;0.90;;;12.70;99.90;;;;;;5110679;28;20483;-51
2021/10/12 09:28:23;;;;;;;1.27;0.80;;;12.80;99.90;;;;;;5112629;28;20940;-50
2021/10/12 09:31:03;;;;;;;1.37;0.73;;;12.70;99.90;;;;;;5112990;28;20818;-49
2021/10/12 09:33:47;;;;;;;1.37;0.70;;;12.70;99.90;;;;;;5113401;28;20907;-51
2021/10/12 09:36:29;;;;;;;1.20;0.70;;;12.70;99.90;;;;;;5113956;28;20440;-49
2021/10/12 09:38:58;;;;;;;1.00;0.67;;;12.40;99.90;;;;;;5112784;28;20674;-51
2021/10/12 09:41:29;;;;;;;1.90;0.90;;;12.20;99.90;;;;;;5116087;28;20444;-50
2021/10/12 09:44:13;;;;;;;1.47;0.70;;;12.10;99.90;;;;;;5112533;28;20452;-50
2021/10/12 09:46:45;;;;;;;2.43;0.90;;;12.00;99.90;;;;;;5109626;28;20646;-52
2021/10/12 09:49:15;;;;;;;1.00;0.60;;;12.00;99.90;;;;;;5114801;28;20886;-51
2021/10/12 09:51:57;;;;;;;2.50;0.90;;;11.90;99.90;;;;;;5113694;28;20496;-52
2021/10/12 09:54:29;;;;;;;1.50;0.70;;;11.80;99.90;;;;;;5091362;28;20513;-52
2021/10/12 09:56:58;;;;;;;2.43;0.70;;;11.80;99.90;;;;;;5087953;28;20456;-52
2021/10/12 09:59:28;;;;;;;1.63;0.70;;;11.90;99.90;;;;;;5090224;28;21040;-51
2021/10/12 10:02:02;;;;;;;1.80;0.80;;;12.10;99.90;;;;;;5090961;28;20453;-46
2021/10/12 10:04:30;;;;;;;2.90;1.40;;;12.00;99.90;;;;;;5091117;28;20519;-47
2021/10/12 10:07:10;;;;;;;2.00;0.80;;;12.00;99.90;;;;;;5090476;28;20500;-49
2021/10/12 10:09:41;;;;;;;1.27;0.70;;;11.90;99.90;;;;;;5088107;28;20452;-48
2021/10/12 10:12:12;;;;;;;1.60;0.93;;;11.70;99.90;;;;;;5089010;28;20499;-48
2021/10/12 10:14:41;;;;;;;1.47;0.60;;;11.40;99.90;;;;;;5088393;28;20968;-45
2021/10/12 10:17:09;;;;;;;2.17;0.87;;;11.20;99.90;;;;;;5090781;28;20445;-47
2021/10/12 10:19:43;;;;;;;1.80;0.90;;;11.30;99.90;;;;;;5090258;28;20862;-48
2021/10/12 10:22:40;;;;;;;2.70;0.90;;;11.50;99.90;;;;;;5089279;28;20457;-46
2021/10/12 10:25:27;;;;;;;2.70;0.90;;;11.60;99.90;;;;;;5091300;28;20485;-47
2021/10/12 10:27:55;;;;;;;1.47;0.80;;;12.00;99.90;;;;;;5092372;28;20816;-49
2021/10/12 10:30:29;;;;;;;2.40;0.80;;;12.30;99.90;;;;;;5091802;28;20442;-51
2021/10/12 10:32:59;;;;;;;3.60;0.83;;;12.20;99.90;;;;;;5088592;28;20931;-50
2021/10/12 10:35:38;;;;;;;1.70;0.70;;;12.30;99.90;;;;;;5087711;28;20453;-50
2021/10/12 10:38:42;;;;;;;2.10;0.77;;;12.40;99.90;;;;;;5089326;28;20702;-48
2021/10/12 10:41:27;;;;;;;2.00;0.60;;;12.80;99.90;;;;;;5089584;28;20971;-46
2021/10/12 10:43:58;;;;;;;5.30;0.90;;;13.20;99.90;;;;;;5086964;28;20449;-50
2021/10/12 10:46:42;;;;;;;2.17;1.00;;;13.30;99.90;;;;;;5088402;28;20984;-49
2021/10/12 10:49:14;;;;;;;1.60;0.70;;;13.40;99.90;;;;;;5094667;28;20449;-55
2021/10/12 10:51:50;;;;;;;1.53;0.90;;;13.20;99.90;;;;;;5095454;28;20471;-56
2021/10/12 10:55:06;;;;;;;1.20;0.73;;;13.40;99.90;;;;;;5095580;28;20445;-54
2021/10/12 10:57:38;;;;;;;1.20;0.80;;;13.40;99.90;;;;;;5096258;28;20457;-52
2021/10/12 11:00:31;;;;;;;0.70;0.53;;;13.20;99.90;;;;;;5095829;28;20452;-54
2021/10/12 11:02:59;;;;;;;1.40;0.70;;;13.00;99.90;;;;;;5091702;28;20825;-56
2021/10/12 11:05:38;;;;;;;2.50;0.70;;;12.90;99.90;;;;;;5094662;28;20503;-54
2021/10/12 11:08:20;;;;;;;1.87;0.60;;;13.00;99.90;;;;;;5092567;28;20473;-55
2021/10/12 11:10:58;;;;;;;1.40;0.60;;;13.30;99.90;;;;;;5094140;28;20979;-56
2021/10/12 11:13:44;;;;;;;5.00;0.80;;;13.50;99.90;;;;;;5092565;28;20460;-55
2021/10/12 11:16:14;;;;;;;1.43;0.70;;;13.40;99.90;;;;;;5090065;28;20445;-57
2021/10/12 11:18:59;;;;;;;0.90;0.60;;;13.50;99.90;;;;;;5092131;28;20501;-58
2021/10/12 11:21:30;;;;;;;1.00;0.60;;;13.70;99.90;;;;;;5093676;28;20949;-58
2021/10/12 11:23:58;;;;;;;1.80;0.70;;;13.70;99.90;;;;;;5093476;28;21051;-58
2021/10/12 11:26:31;;;;;;;1.23;0.60;;;13.70;99.90;;;;;;5091723;28;20534;-58
2021/10/12 11:29:06;;;;;;;1.97;0.70;;;13.20;99.90;;;;;;5092373;28;20772;-58
2021/10/12 11:31:36;;;;;;;4.00;0.70;;;13.20;99.90;;;;;;5091694;28;20527;-58
2021/10/12 11:34:15;;;;;;;1.30;0.53;;;13.40;99.90;;;;;;5090637;28;20457;-58
2021/10/12 11:36:46;;;;;;;1.03;0.60;;;13.60;99.90;;;;;;5092242;28;20532;-58
2021/10/12 11:39:23;;;;;;;2.53;0.60;;;13.80;99.90;;;;;;5093058;28;20457;-59
2021/10/12 11:41:53;;;;;;;1.10;0.53;;;13.40;99.90;;;;;;5093375;28;20445;-58
2021/10/12 11:44:27;;;;;;;2.23;0.67;;;13.50;99.90;;;;;;5093640;28;20453;-58
2021/10/12 11:47:00;;;;;;;2.93;0.60;;;13.80;99.90;;;;;;5092651;28;20426;-59
2021/10/12 11:49:39;;;;;;;1.63;0.60;;;13.90;99.90;;;;;;5093412;28;20437;-58
2021/10/12 11:52:16;;;;;;;2.70;0.57;;;13.80;99.90;;;;;;5078424;28;20441;-59
2021/10/12 11:57:54;;;;;;;3.10;0.60;;;14.10;99.90;;;;;;5091679;28;20445;-58
2021/10/12 12:00:47;;;;;;;1.97;0.67;;;14.40;99.90;;;;;;5093292;28;20479;-58
2021/10/12 12:03:27;;;;;;;1.33;0.60;;;14.40;99.90;;;;;;5091305;28;20467;-58
2021/10/12 12:06:15;;;;;;;1.20;0.60;;;14.50;99.90;;;;;;5090710;28;20481;-59
2021/10/12 12:08:47;;;;;;;1.10;0.60;;;14.50;99.90;;;;;;5094116;28;20457;-59
2021/10/12 12:11:24;;;;;;;5.67;0.60;;;14.40;99.90;;;;;;5093438;28;20456;-58
2021/10/12 12:13:53;;;;;;;1.53;0.50;;;13.90;99.90;;;;;;5093862;28;20453;-58
2021/10/12 12:16:36;;;;;;;1.03;0.67;;;13.80;99.90;;;;;;5093787;28;20500;-58
2021/10/12 12:19:28;;;;;;;0.87;0.50;;;13.60;99.90;;;;;;5094356;28;20449;-59
2021/10/12 12:22:09;;;;;;;2.63;0.60;;;13.70;99.90;;;;;;5094555;28;20541;-59
2021/10/12 12:24:55;;;;;;;0.90;0.40;;;14.00;99.90;;;;;;5091867;28;20449;-59
2021/10/12 12:27:23;;;;;;;1.03;0.60;;;14.20;99.90;;;;;;5089821;28;20568;-59
2021/10/12 12:30:09;;;;;;;1.10;0.60;;;14.20;99.90;;;;;;5093525;28;20480;-59
2021/10/12 12:32:55;;;;;;;1.30;0.60;;;14.50;99.90;;;;;;5092946;28;20434;-58
2021/10/12 12:35:28;;;;;;;1.20;0.50;;;14.70;99.90;;;;;;5090804;28;20994;-58
2021/10/12 12:38:05;;;;;;;1.20;0.60;;;14.50;99.90;;;;;;5074406;28;20891;-58
2021/10/12 12:40:37;;;;;;;0.80;0.50;;;14.70;99.90;;;;;;5091580;28;20913;-59
2021/10/12 12:43:17;;;;;;;1.50;0.73;;;14.90;99.90;;;;;;5092312;28;20442;-59
2021/10/12 12:45:48;;;;;;;4.30;0.70;;;15.00;99.90;;;;;;5092398;28;21193;-60
2021/10/12 12:48:28;;;;;;;3.33;0.73;;;14.70;99.90;;;;;;5092245;28;20519;-60
2021/10/12 12:51:08;;;;;;;1.70;0.80;;;14.50;99.90;;;;;;5092445;28;20473;-59
2021/10/12 12:53:43;;;;;;;0.90;0.60;;;14.30;99.90;;;;;;5090504;28;20441;-59
2021/10/12 12:56:20;;;;;;;0.73;0.50;;;14.30;99.90;;;;;;5090338;28;20556;-59
2021/10/12 12:59:17;;;;;;;2.37;0.70;;;14.10;99.90;;;;;;5088342;28;20452;-60
2021/10/12 13:01:54;;;;;;;0.70;0.50;;;13.90;99.90;;;;;;5089956;28;20457;-59
2021/10/12 13:04:37;;;;;;;1.13;0.80;;;13.80;99.90;;;;;;5089313;28;20670;-60
2021/10/12 13:07:23;;;;;;;1.23;0.90;;;14.10;99.90;;;;;;5083638;28;20457;-60
2021/10/12 13:09:53;;;;;;;1.20;0.70;;;14.40;99.90;;;;;;5087291;28;20448;-59